createdAt,value
2023-03-26T00:01:46.966Z,6.28
2023-03-26T00:04:15.185Z,5.68
2023-03-26T00:06:44.416Z,5.82
2023-03-26T00:09:14.069Z,5.38
2023-03-26T00:11:42.458Z,5.70
2023-03-26T00:14:14.194Z,7.32
2023-03-26T00:16:43.281Z,5.60
2023-03-26T00:19:11.646Z,5.72
2023-03-26T00:21:39.912Z,6.05
2023-03-26T00:24:15.289Z,5.60
2023-03-26T00:26:44.624Z,5.22
2023-03-26T00:29:13.921Z,5.40
2023-03-26T00:31:46.414Z,4.97
2023-03-26T00:34:15.747Z,4.82
2023-03-26T00:36:44.019Z,5.03
2023-03-26T00:39:14.113Z,5.80
2023-03-26T00:41:43.083Z,5.45
2023-03-26T00:44:11.620Z,5.75
2023-03-26T00:46:39.844Z,6.05
2023-03-26T00:49:10.969Z,5.88
2023-03-26T00:51:39.537Z,5.53
2023-03-26T00:54:08.872Z,5.53
2023-03-26T00:56:38.662Z,6.55
2023-03-26T00:59:06.730Z,6.07
2023-03-26T01:01:34.616Z,6.13
2023-03-26T01:04:35.240Z,6.43
2023-03-26T01:07:10.562Z,5.28
2023-03-26T01:09:44.934Z,5.50
2023-03-26T01:12:17.105Z,5.13
2023-03-26T01:14:46.313Z,7.32
2023-03-26T01:17:15.037Z,5.75
2023-03-26T01:19:49.548Z,6.43
2023-03-26T01:22:20.792Z,5.93
2023-03-26T01:24:56.085Z,6.53
2023-03-26T01:27:33.597Z,5.80
2023-03-26T01:30:11.467Z,6.43
2023-03-26T01:32:51.543Z,6.72
2023-03-26T01:35:30.087Z,6.20
2023-03-26T01:38:10.923Z,6.30
2023-03-26T01:40:47.051Z,6.22
2023-03-26T01:43:23.205Z,7.18
2023-03-26T01:45:52.633Z,7.00
2023-03-26T01:48:21.137Z,6.95
2023-03-26T01:50:53.488Z,7.47
2023-03-26T01:53:21.682Z,6.80
2023-03-26T01:56:02.056Z,6.78
2023-03-26T01:58:36.894Z,6.90
2023-03-26T02:01:16.892Z,7.47
2023-03-26T02:03:51.435Z,7.78
2023-03-26T02:06:25.731Z,8.07
2023-03-26T02:08:57.690Z,8.45
2023-03-26T02:11:34.782Z,7.70
2023-03-26T02:14:05.423Z,9.10
2023-03-26T02:16:33.421Z,9.05
2023-03-26T02:19:01.286Z,8.82
2023-03-26T02:21:29.440Z,9.38
2023-03-26T02:24:02.747Z,9.25
2023-03-26T02:26:37.641Z,8.88
2023-03-26T02:29:12.324Z,9.35
2023-03-26T02:31:43.339Z,8.73
2023-03-26T02:34:11.308Z,9.30
2023-03-26T02:36:42.876Z,9.10
2023-03-26T02:39:11.971Z,9.30
2023-03-26T02:41:42.050Z,9.00
2023-03-26T02:44:12.536Z,8.35
2023-03-26T02:46:58.666Z,8.93
2023-03-26T02:49:48.223Z,9.30
2023-03-26T02:52:33.601Z,8.10
2023-03-26T02:55:01.639Z,8.55
2023-03-26T02:57:31.364Z,8.35
2023-03-26T03:00:17.401Z,7.75
2023-03-26T03:02:48.817Z,8.93
2023-03-26T03:05:48.473Z,8.82
2023-03-26T03:08:39.156Z,9.38
2023-03-26T03:11:22.075Z,9.65
2023-03-26T03:13:54.165Z,9.52
2023-03-26T03:16:29.654Z,10.93
2023-03-26T03:19:01.829Z,10.10
2023-03-26T03:21:40.591Z,10.43
2023-03-26T03:24:11.608Z,10.93
2023-03-26T03:26:47.635Z,10.55
2023-03-26T03:29:43.895Z,9.98
2023-03-26T03:32:32.047Z,11.35
2023-03-26T03:35:05.234Z,12.57
2023-03-26T03:37:33.122Z,12.77
2023-03-26T03:40:01.480Z,12.15
2023-03-26T03:42:32.632Z,11.40
2023-03-26T03:45:05.938Z,12.77
2023-03-26T03:48:00.379Z,12.45
2023-03-26T03:50:36.589Z,11.68
2023-03-26T03:53:30.489Z,11.60
2023-03-26T03:56:01.927Z,12.70
2023-03-26T03:58:48.670Z,12.52
2023-03-26T04:01:26.171Z,12.05
2023-03-26T04:04:00.127Z,11.63
2023-03-26T04:06:41.526Z,12.30
2023-03-26T04:09:11.095Z,11.48
2023-03-26T04:11:39.614Z,13.10
2023-03-26T04:14:27.692Z,11.20
2023-03-26T04:17:06.490Z,12.65
2023-03-26T04:19:38.475Z,12.35
2023-03-26T04:22:09.363Z,12.73
2023-03-26T04:24:44.394Z,13.10
2023-03-26T04:27:44.390Z,13.27
2023-03-26T04:30:21.884Z,12.85
2023-03-26T04:32:58.614Z,13.23
2023-03-26T04:35:30.459Z,14.25
2023-03-26T04:37:58.988Z,15.55
2023-03-26T04:40:34.560Z,15.05
2023-03-26T04:43:26.402Z,17.50
2023-03-26T04:46:07.452Z,14.82
2023-03-26T04:48:43.085Z,15.13
2023-03-26T04:51:18.227Z,16.77
2023-03-26T04:53:52.688Z,17.33
2023-03-26T04:56:48.052Z,16.27
2023-03-26T04:59:34.931Z,16.42
2023-03-26T05:02:07.917Z,16.08
2023-03-26T05:04:49.923Z,16.17
2023-03-26T05:07:22.346Z,18.67
2023-03-26T05:09:53.650Z,20.05
2023-03-26T05:12:35.028Z,19.83
2023-03-26T05:15:07.738Z,21.75
2023-03-26T05:18:04.731Z,21.20
2023-03-26T05:20:42.566Z,23.75
2023-03-26T05:23:11.446Z,22.60
2023-03-26T05:25:59.560Z,23.08
2023-03-26T05:28:28.215Z,23.95
2023-03-26T05:31:03.656Z,22.13
2023-03-26T05:33:37.341Z,25.60
2023-03-26T05:36:15.232Z,24.35
2023-03-26T05:38:49.921Z,22.42
2023-03-26T05:41:36.339Z,22.52
2023-03-26T05:44:04.493Z,23.17
2023-03-26T05:46:32.671Z,23.45
2023-03-26T05:49:01.377Z,22.65
2023-03-26T05:51:35.454Z,25.13
2023-03-26T05:54:38.516Z,22.77
2023-03-26T05:57:09.150Z,23.05
2023-03-26T05:59:56.590Z,24.42
2023-03-26T06:02:57.280Z,23.45
2023-03-26T06:05:45.693Z,22.45
2023-03-26T06:08:20.634Z,22.77
2023-03-26T06:10:58.927Z,23.05
2023-03-26T06:13:27.514Z,22.73
2023-03-26T06:15:57.914Z,21.48
2023-03-26T06:18:33.146Z,23.13
2023-03-26T06:21:19.886Z,22.42
2023-03-26T06:24:00.501Z,21.25
2023-03-26T06:26:41.079Z,21.73
2023-03-26T06:32:19.486Z,19.70
2023-03-26T06:35:07.713Z,21.33
2023-03-26T06:37:35.984Z,21.27
2023-03-26T06:40:06.645Z,20.75
2023-03-26T06:43:11.116Z,21.35
2023-03-26T06:46:11.272Z,20.42
2023-03-26T06:48:39.573Z,21.30
2023-03-26T06:51:27.679Z,21.10
2023-03-26T06:54:18.673Z,21.80
2023-03-26T06:57:21.000Z,19.88
2023-03-26T07:00:10.537Z,20.02
2023-03-26T07:02:56.772Z,20.33
2023-03-26T07:05:43.354Z,19.30
2023-03-26T07:08:31.993Z,19.50
2023-03-26T07:11:36.353Z,19.13
2023-03-26T07:14:27.812Z,18.42
2023-03-26T07:17:09.020Z,19.27
2023-03-26T07:20:08.140Z,19.60
2023-03-26T07:22:36.930Z,19.30
2023-03-26T07:25:09.318Z,20.08
2023-03-26T07:27:59.243Z,19.50
2023-03-26T07:30:59.894Z,19.13
2023-03-26T07:33:47.308Z,18.10
2023-03-26T07:36:34.985Z,17.42
2023-03-26T07:39:37.492Z,18.25
2023-03-26T07:42:35.718Z,17.73
2023-03-26T07:45:30.448Z,16.58
2023-03-26T07:48:16.945Z,17.35
2023-03-26T07:51:10.407Z,17.30
2023-03-26T07:54:04.114Z,16.35
2023-03-26T07:56:48.204Z,15.48
2023-03-26T07:59:52.197Z,14.07
2023-03-26T08:03:15.995Z,13.27
2023-03-26T08:06:01.450Z,11.65
2023-03-26T08:08:56.417Z,13.65
2023-03-26T08:11:57.895Z,11.98
2023-03-26T08:14:37.268Z,11.25
2023-03-26T08:17:11.036Z,10.23
2023-03-26T08:19:49.259Z,8.70
2023-03-26T08:22:26.241Z,8.07
2023-03-26T08:25:20.880Z,7.82
2023-03-26T08:28:01.695Z,9.00
2023-03-26T08:30:30.955Z,6.90
2023-03-26T08:33:00.702Z,6.38
2023-03-26T08:35:29.958Z,6.57
2023-03-26T08:37:58.036Z,7.23
2023-03-26T08:40:54.012Z,7.95
2023-03-26T08:43:49.044Z,10.38
2023-03-26T08:46:48.911Z,8.75
2023-03-26T08:49:45.894Z,9.48
2023-03-26T08:52:38.671Z,10.75
2023-03-26T08:55:23.220Z,9.95
2023-03-26T08:58:37.088Z,9.70
2023-03-26T09:01:23.317Z,10.23
2023-03-26T09:04:22.552Z,10.23
2023-03-26T09:07:22.897Z,10.70
2023-03-26T09:10:33.257Z,14.30
2023-03-26T09:13:43.525Z,16.33
2023-03-26T09:16:54.166Z,9.20
2023-03-26T09:19:55.252Z,9.88
2023-03-26T09:23:07.602Z,9.57
2023-03-26T09:26:04.905Z,9.95
2023-03-26T09:29:11.278Z,9.88
2023-03-26T09:32:24.361Z,11.00
2023-03-26T09:35:13.223Z,9.75
2023-03-26T09:37:58.858Z,9.35
2023-03-26T09:40:38.797Z,10.73
2023-03-26T09:43:37.546Z,8.20
2023-03-26T09:46:21.811Z,6.88
2023-03-26T09:49:08.859Z,6.72
2023-03-26T09:51:55.445Z,8.00
2023-03-26T09:54:51.727Z,8.45
2023-03-26T09:57:36.510Z,6.18
2023-03-26T10:00:22.192Z,5.72
2023-03-26T10:03:15.056Z,4.28
2023-03-26T10:05:58.024Z,5.55
2023-03-26T10:08:44.293Z,7.07
2023-03-26T10:11:21.398Z,8.80
2023-03-26T10:14:00.028Z,9.02
2023-03-26T10:16:39.299Z,9.50
2023-03-26T10:19:31.654Z,10.00
2023-03-26T10:22:09.455Z,9.00
2023-03-26T10:25:00.413Z,8.63
2023-03-26T10:27:42.255Z,8.40
2023-03-26T10:30:40.604Z,7.82
2023-03-26T10:33:18.997Z,7.90
2023-03-26T10:35:57.289Z,7.03
2023-03-26T10:38:37.052Z,5.85
2023-03-26T10:41:12.740Z,6.00
2023-03-26T10:44:08.884Z,7.30
2023-03-26T10:47:15.482Z,7.93
2023-03-26T10:50:04.071Z,6.00
2023-03-26T10:52:38.768Z,6.78
2023-03-26T10:55:15.288Z,6.05
2023-03-26T10:57:46.966Z,6.28
2023-03-26T11:00:18.088Z,6.20
2023-03-26T11:02:55.651Z,6.47
2023-03-26T11:05:47.823Z,11.88
2023-03-26T11:08:31.101Z,11.48
2023-03-26T11:11:10.264Z,10.73
2023-03-26T11:13:50.402Z,11.10
2023-03-26T11:16:26.675Z,11.20
2023-03-26T11:19:00.537Z,9.68
2023-03-26T11:21:37.275Z,10.05
2023-03-26T11:24:37.576Z,9.40
2023-03-26T11:27:15.314Z,8.77
2023-03-26T11:29:51.483Z,7.68
2023-03-26T11:32:23.676Z,8.48
2023-03-26T11:35:00.409Z,8.45
2023-03-26T11:37:34.756Z,8.20
2023-03-26T11:40:07.750Z,7.50
2023-03-26T11:42:35.856Z,8.57
2023-03-26T11:45:07.822Z,8.95
2023-03-26T11:47:41.706Z,8.77
2023-03-26T11:50:16.917Z,9.40
2023-03-26T11:52:47.102Z,10.77
2023-03-26T11:57:51.747Z,9.90
2023-03-26T12:00:23.030Z,9.20
2023-03-26T12:02:51.871Z,10.25
2023-03-26T12:05:22.293Z,9.48
2023-03-26T12:07:57.282Z,8.55
2023-03-26T12:10:29.391Z,4.22
2023-03-26T12:13:00.632Z,3.67
2023-03-26T12:15:30.865Z,3.80
2023-03-26T12:20:38.580Z,3.85
2023-03-26T12:23:08.178Z,4.53
2023-03-26T12:25:38.857Z,4.13
2023-03-26T12:28:18.850Z,3.78
2023-03-26T12:30:55.000Z,3.85
2023-03-26T12:33:27.655Z,3.95
2023-03-26T12:35:57.902Z,2.75
2023-03-26T12:42:36.633Z,3.20
2023-03-26T12:44:51.244Z,4.60
2023-03-26T12:47:56.162Z,4.97
2023-03-26T12:49:35.371Z,4.65
2023-03-26T12:52:19.756Z,4.88
2023-03-26T12:54:57.586Z,11.15
2023-03-26T12:57:30.754Z,12.18
2023-03-26T13:00:11.467Z,4.80
2023-03-26T13:02:58.872Z,6.10
2023-03-26T13:05:43.102Z,9.98
2023-03-26T13:08:28.708Z,5.03
2023-03-26T13:11:01.757Z,5.07
2023-03-26T13:13:56.326Z,13.85
2023-03-26T13:16:33.289Z,6.20
2023-03-26T13:19:07.076Z,3.90
2023-03-26T13:21:47.036Z,4.80
2023-03-26T13:24:29.613Z,5.03
2023-03-26T13:27:12.951Z,63.40
2023-03-26T13:29:56.334Z,4.22
2023-03-26T13:32:35.112Z,32.28
2023-03-26T13:35:17.687Z,30.40
2023-03-26T13:37:53.369Z,62.13
2023-03-26T13:40:27.838Z,21.40
2023-03-26T13:43:15.964Z,24.85
2023-03-26T13:45:55.792Z,16.73
2023-03-26T13:48:29.366Z,83.18
2023-03-26T13:51:03.689Z,94.18
2023-03-26T13:53:38.450Z,9.35
2023-03-26T13:56:09.458Z,10.20
2023-03-26T13:58:43.599Z,3.60
2023-03-26T14:01:17.529Z,2.63
2023-03-26T14:03:54.528Z,2.88
2023-03-26T14:06:33.972Z,3.47
2023-03-26T14:09:06.558Z,2.17
2023-03-26T14:11:47.302Z,2.72
2023-03-26T14:14:21.141Z,2.88
2023-03-26T14:16:54.536Z,4.53
2023-03-26T14:20:14.766Z,2.03
2023-03-26T14:22:52.215Z,2.40
2023-03-26T14:25:31.248Z,2.67
2023-03-26T14:28:17.135Z,2.20
2023-03-26T14:31:19.440Z,2.45
2023-03-26T14:34:25.966Z,2.70
2023-03-26T14:37:27.801Z,2.33
2023-03-26T14:40:14.877Z,2.70
2023-03-26T14:42:48.912Z,2.47
2023-03-26T14:45:39.582Z,1.52
2023-03-26T14:48:38.433Z,2.20
2023-03-26T14:51:19.584Z,2.30
2023-03-26T14:53:52.119Z,1.83
2023-03-26T14:56:47.957Z,2.33
2023-03-26T15:00:07.097Z,1.80
2023-03-26T15:03:34.574Z,2.45
2023-03-26T15:06:27.255Z,2.60
2023-03-26T15:09:27.687Z,3.22
2023-03-26T15:12:12.057Z,3.42
2023-03-26T15:15:26.995Z,3.38
2023-03-26T15:18:15.573Z,3.65
2023-03-26T15:21:16.422Z,2.92
2023-03-26T15:24:09.778Z,4.00
2023-03-26T15:27:12.050Z,3.95
2023-03-26T15:30:02.775Z,2.20
2023-03-26T15:33:06.814Z,1.98
2023-03-26T15:36:09.313Z,2.42
2023-03-26T15:39:08.429Z,6.47
2023-03-26T15:41:45.206Z,3.03
2023-03-26T15:44:40.947Z,3.92
2023-03-26T15:47:37.307Z,2.38
2023-03-26T15:50:19.150Z,2.95
2023-03-26T15:52:56.016Z,3.78
2023-03-26T15:55:33.605Z,3.78
2023-03-26T15:58:11.458Z,3.05
2023-03-26T16:00:50.900Z,2.92
2023-03-26T16:03:31.881Z,2.87
2023-03-26T16:06:30.795Z,3.63
2023-03-26T16:09:17.035Z,4.00
2023-03-26T16:11:54.950Z,5.50
2023-03-26T16:14:25.179Z,4.57
2023-03-26T16:19:49.169Z,6.82
2023-03-26T16:22:43.413Z,6.60
2023-03-26T16:25:30.798Z,7.78
2023-03-26T16:28:27.512Z,8.20
2023-03-26T16:31:38.381Z,6.03
2023-03-26T16:34:42.455Z,6.07
2023-03-26T16:37:36.985Z,6.97
2023-03-26T16:40:34.225Z,6.70
2023-03-26T16:43:26.510Z,6.80
2023-03-26T16:46:01.195Z,6.25
2023-03-26T16:48:36.390Z,6.10
2023-03-26T16:51:14.900Z,5.60
2023-03-26T16:53:51.225Z,5.68
2023-03-26T16:56:31.992Z,5.60
2023-03-26T16:59:07.793Z,4.85
2023-03-26T17:01:42.921Z,6.20
2023-03-26T17:04:17.167Z,5.18
2023-03-26T17:07:09.589Z,4.82
2023-03-26T17:09:46.514Z,5.15
2023-03-26T17:12:23.788Z,4.43
2023-03-26T17:15:07.444Z,5.10
2023-03-26T17:17:58.591Z,6.32
2023-03-26T17:20:36.827Z,4.68
2023-03-26T17:23:17.242Z,4.55
2023-03-26T17:25:58.549Z,6.95
2023-03-26T17:29:01.593Z,9.43
2023-03-26T17:31:41.127Z,6.85
2023-03-26T17:34:34.825Z,8.48
2023-03-26T17:37:05.645Z,6.20
2023-03-26T17:40:36.066Z,6.45
2023-03-26T17:45:39.209Z,4.30
2023-03-26T17:48:17.816Z,5.00
2023-03-26T17:50:53.418Z,4.82
2023-03-26T17:53:25.748Z,4.20
2023-03-26T17:55:54.818Z,5.30
2023-03-26T17:58:28.121Z,5.47
2023-03-26T18:01:05.056Z,4.53
2023-03-26T18:03:37.302Z,4.22
2023-03-26T18:06:09.637Z,4.80
2023-03-26T18:08:50.740Z,4.82
2023-03-26T18:11:38.273Z,4.85
2023-03-26T18:14:30.763Z,4.75
2023-03-26T18:17:00.975Z,5.55
2023-03-26T18:22:04.726Z,4.60
2023-03-26T18:24:37.463Z,6.60
2023-03-26T18:27:09.549Z,7.45
2023-03-26T18:29:38.853Z,8.30
2023-03-26T18:32:22.175Z,7.75
2023-03-26T18:34:57.226Z,6.35
2023-03-26T18:37:28.110Z,4.75
2023-03-26T18:40:02.298Z,3.90
2023-03-26T18:42:32.727Z,4.30
2023-03-26T18:45:05.239Z,3.45
2023-03-26T18:47:33.324Z,3.80
2023-03-26T18:50:02.583Z,5.18
2023-03-26T18:52:33.191Z,3.13
2023-03-26T18:55:03.780Z,3.72
2023-03-26T18:57:31.843Z,3.63
2023-03-26T19:00:15.633Z,4.95
2023-03-26T19:02:43.721Z,4.32
2023-03-26T19:05:16.732Z,4.28
2023-03-26T19:07:47.102Z,3.00
2023-03-26T19:10:21.997Z,3.45
2023-03-26T19:12:56.287Z,3.08
2023-03-26T19:15:25.646Z,2.97
2023-03-26T19:17:59.585Z,3.93
2023-03-26T19:20:33.633Z,3.42
2023-03-26T19:23:01.730Z,3.50
2023-03-26T19:25:35.245Z,3.10
2023-03-26T19:28:03.645Z,3.55
2023-03-26T19:30:34.087Z,3.88
2023-03-26T19:33:13.976Z,4.05
2023-03-26T19:35:45.339Z,4.38
2023-03-26T19:38:25.514Z,4.18
2023-03-26T19:40:55.497Z,2.92
2023-03-26T19:46:00.266Z,3.35
2023-03-26T19:48:45.676Z,4.55
2023-03-26T19:51:20.975Z,3.17
2023-03-26T19:53:52.972Z,3.58
2023-03-26T19:56:21.890Z,3.05
2023-03-26T19:58:50.422Z,2.78
2023-03-26T20:01:20.911Z,2.95
2023-03-26T20:03:52.639Z,3.10
2023-03-26T20:06:33.956Z,2.85
2023-03-26T20:09:10.872Z,4.07
2023-03-26T20:11:39.878Z,4.13
2023-03-26T20:14:13.834Z,3.40
2023-03-26T20:16:43.813Z,3.53
2023-03-26T20:19:14.097Z,3.47
2023-03-26T20:21:44.311Z,3.72
2023-03-26T20:24:14.635Z,3.90
2023-03-26T20:29:11.517Z,4.25
2023-03-26T20:31:41.345Z,2.70
2023-03-26T20:34:19.778Z,3.35
2023-03-26T20:36:54.245Z,3.10
2023-03-26T20:39:22.944Z,3.17
2023-03-26T20:41:51.540Z,3.25
2023-03-26T20:44:20.992Z,3.35
2023-03-26T20:46:50.607Z,3.65
2023-03-26T20:49:19.200Z,2.35
2023-03-26T20:51:47.702Z,2.75
2023-03-26T20:54:19.411Z,2.38
2023-03-26T20:56:49.204Z,3.60
2023-03-26T20:59:22.290Z,2.80
2023-03-26T21:01:51.290Z,3.15
2023-03-26T21:04:20.380Z,2.38
2023-03-26T21:06:48.956Z,2.20
2023-03-26T21:09:23.618Z,2.40
2023-03-26T21:12:00.361Z,2.83
2023-03-26T21:14:32.144Z,3.25
2023-03-26T21:17:00.539Z,2.75
2023-03-26T21:19:29.100Z,2.33
2023-03-26T21:22:04.777Z,2.35
2023-03-26T21:24:46.919Z,2.50
2023-03-26T21:27:26.184Z,2.30
2023-03-26T21:29:54.824Z,3.00
2023-03-26T21:32:24.218Z,2.15
2023-03-26T21:34:58.505Z,2.63
2023-03-26T21:37:27.960Z,2.25
2023-03-26T21:39:59.736Z,2.00
2023-03-26T21:42:29.383Z,2.28
2023-03-26T21:44:57.704Z,2.42
2023-03-26T21:47:26.257Z,2.28
2023-03-26T21:49:54.767Z,3.00
2023-03-26T21:52:23.876Z,2.67
2023-03-26T21:54:52.795Z,2.50
2023-03-26T21:57:43.419Z,1.98
2023-03-26T22:00:16.265Z,2.28
2023-03-26T22:02:56.258Z,2.35
2023-03-26T22:05:31.105Z,2.60
2023-03-26T22:08:02.075Z,2.70
2023-03-26T22:10:30.827Z,2.35
2023-03-26T22:13:00.415Z,2.13
2023-03-26T22:15:30.552Z,2.30
2023-03-26T22:20:29.174Z,2.65
2023-03-26T22:22:57.035Z,2.35
2023-03-26T22:25:25.267Z,2.35
2023-03-26T22:27:53.849Z,2.65
2023-03-26T22:30:23.044Z,2.40
2023-03-26T22:32:51.723Z,2.55
2023-03-26T22:35:20.119Z,2.00
2023-03-26T22:37:48.424Z,2.33
2023-03-26T22:40:17.901Z,1.80
2023-03-26T22:42:45.746Z,2.03
2023-03-26T22:45:13.993Z,2.92
2023-03-26T22:47:43.261Z,2.42
2023-03-26T22:50:12.117Z,2.55
2023-03-26T22:52:40.839Z,2.70
2023-03-26T22:55:10.995Z,2.13
2023-03-26T22:57:39.249Z,1.85
2023-03-26T23:00:16.095Z,2.55
2023-03-26T23:02:46.110Z,2.70
2023-03-26T23:05:14.156Z,2.05
2023-03-26T23:07:42.464Z,2.10
2023-03-26T23:10:11.629Z,2.33
2023-03-26T23:12:39.961Z,2.13
2023-03-26T23:15:09.760Z,2.33
2023-03-26T23:17:38.617Z,2.67
2023-03-26T23:20:14.607Z,2.47
2023-03-26T23:22:43.673Z,2.10
2023-03-26T23:25:12.575Z,2.63
2023-03-26T23:27:41.253Z,2.72
2023-03-26T23:30:11.864Z,2.30
2023-03-26T23:32:40.653Z,1.70
2023-03-26T23:35:11.217Z,3.08
2023-03-26T23:37:42.204Z,2.75
2023-03-26T23:40:12.472Z,2.25
2023-03-26T23:42:40.384Z,2.45
2023-03-26T23:45:09.295Z,1.90
2023-03-26T23:47:37.406Z,2.22
2023-03-26T23:50:07.768Z,2.55
2023-03-26T23:52:37.774Z,1.90
2023-03-26T23:55:06.271Z,2.13
2023-03-26T23:57:35.393Z,2.28
